createdAt,value
2023-03-04T00:45:12.730Z,21.17
2023-03-04T00:53:12.433Z,21.16
2023-03-04T00:54:12.436Z,21.16
2023-03-04T00:55:12.350Z,21.16
2023-03-04T00:56:12.307Z,21.16
2023-03-04T00:57:12.278Z,21.15
2023-03-04T00:58:12.266Z,21.15
2023-03-04T00:59:12.733Z,21.15
2023-03-04T01:00:12.246Z,21.15
2023-03-04T01:01:12.282Z,21.15
2023-03-04T01:02:12.169Z,21.14
2023-03-04T01:03:12.106Z,21.15
2023-03-04T01:04:12.072Z,21.14
2023-03-04T01:05:12.043Z,21.15
2023-03-04T01:06:12.007Z,21.14
2023-03-04T01:07:11.978Z,21.14
2023-03-04T01:08:11.951Z,21.14
2023-03-04T01:09:11.922Z,21.14
2023-03-04T01:10:12.250Z,21.14
2023-03-04T01:11:11.872Z,21.14
2023-03-04T01:12:11.842Z,21.13
2023-03-04T01:13:11.837Z,21.14
2023-03-04T01:14:11.923Z,21.13
2023-03-04T01:15:11.830Z,21.14
2023-03-04T01:16:11.838Z,21.12
2023-03-04T01:17:11.840Z,21.13
2023-03-04T01:18:11.947Z,21.13
2023-03-04T01:19:11.821Z,21.12
2023-03-04T01:20:11.834Z,21.13
2023-03-04T01:21:11.830Z,21.12
2023-03-04T01:22:11.818Z,21.12
2023-03-04T01:23:11.814Z,21.13
2023-03-04T01:24:11.816Z,21.12
2023-03-04T01:25:11.886Z,21.12
2023-03-04T01:26:11.809Z,21.12
2023-03-04T01:27:11.820Z,21.12
2023-03-04T01:28:11.819Z,21.12
2023-03-04T01:29:11.804Z,21.12
2023-03-04T01:30:11.806Z,21.11
2023-03-04T01:31:11.838Z,21.11
2023-03-04T01:32:11.856Z,21.10
2023-03-04T01:33:11.801Z,21.10
2023-03-04T01:34:11.802Z,21.11
2023-03-04T01:35:11.803Z,21.11
2023-03-04T01:36:11.808Z,21.11
2023-03-04T01:37:11.807Z,21.10
2023-03-04T01:38:11.808Z,21.10
2023-03-04T01:39:11.822Z,21.10
2023-03-04T01:40:11.885Z,21.11
2023-03-04T01:41:11.867Z,21.10
2023-03-04T01:42:11.837Z,21.10
2023-03-04T01:43:11.834Z,21.10
2023-03-04T01:44:11.835Z,21.10
2023-03-04T01:45:11.826Z,21.10
2023-03-04T01:46:12.820Z,21.10
2023-03-04T01:47:11.837Z,21.10
2023-03-04T01:48:11.838Z,21.09
2023-03-04T01:49:11.901Z,21.09
2023-03-04T01:50:11.860Z,21.09
2023-03-04T01:51:11.835Z,21.09
2023-03-04T01:52:11.852Z,21.09
2023-03-04T01:53:11.968Z,21.08
2023-03-04T01:54:11.850Z,21.09
2023-03-04T01:55:11.852Z,21.08
2023-03-04T01:56:11.926Z,21.09
2023-03-04T01:57:11.857Z,21.08
2023-03-04T01:58:11.847Z,21.08
2023-03-04T01:59:11.873Z,21.09
2023-03-04T02:00:11.862Z,21.08
2023-03-04T02:01:11.893Z,21.08
2023-03-04T02:02:11.872Z,21.08
2023-03-04T02:03:11.933Z,21.08
2023-03-04T02:04:11.908Z,21.08
2023-03-04T02:05:12.768Z,21.08
2023-03-04T02:06:11.873Z,21.08
2023-03-04T02:07:11.889Z,21.07
2023-03-04T02:08:11.881Z,21.07
2023-03-04T02:09:11.891Z,21.07
2023-03-04T02:10:11.875Z,21.07
2023-03-04T02:11:12.759Z,21.07
2023-03-04T02:12:11.893Z,21.08
2023-03-04T02:13:11.890Z,21.06
2023-03-04T02:14:11.900Z,21.06
2023-03-04T02:15:11.898Z,21.06
2023-03-04T02:16:11.909Z,21.06
2023-03-04T02:17:11.905Z,21.06
2023-03-04T02:18:11.906Z,21.06
2023-03-04T02:19:11.975Z,21.05
2023-03-04T02:20:11.928Z,21.06
2023-03-04T02:21:11.904Z,21.06
2023-03-04T02:22:11.928Z,21.06
2023-03-04T02:23:11.909Z,21.06
2023-03-04T02:24:12.007Z,21.06
2023-03-04T02:25:11.939Z,21.05
2023-03-04T02:26:11.937Z,21.05
2023-03-04T02:27:11.996Z,21.05
2023-03-04T02:28:11.952Z,21.05
2023-03-04T02:29:11.942Z,21.05
2023-03-04T02:30:11.950Z,21.05
2023-03-04T02:31:11.988Z,21.05
2023-03-04T02:32:11.979Z,21.05
2023-03-04T02:33:11.963Z,21.04
2023-03-04T02:34:11.960Z,21.04
2023-03-04T02:35:11.968Z,21.04
2023-03-04T02:36:11.983Z,21.04
2023-03-04T02:37:11.967Z,21.04
2023-03-04T02:38:11.981Z,21.04
2023-03-04T02:39:11.974Z,21.04
2023-03-04T02:40:12.773Z,21.04
2023-03-04T02:41:11.991Z,21.04
2023-03-04T04:47:13.307Z,20.90
2023-03-04T04:48:13.321Z,20.90
2023-03-04T04:49:13.335Z,20.90
2023-03-04T04:50:13.411Z,20.90
2023-03-04T04:51:13.379Z,20.90
2023-03-04T04:53:13.406Z,20.90
2023-03-04T04:54:13.423Z,20.90
2023-03-04T04:55:13.441Z,20.90
2023-03-04T04:56:13.484Z,20.90
2023-03-04T04:57:13.512Z,20.89
2023-03-04T04:58:13.505Z,20.90
2023-03-04T04:59:13.519Z,20.90
2023-03-04T05:00:13.534Z,20.90
2023-03-04T05:01:13.577Z,20.89
2023-03-04T05:02:13.634Z,20.89
2023-03-04T05:03:13.631Z,20.89
2023-03-04T05:04:13.588Z,20.89
2023-03-04T05:05:13.610Z,20.89
2023-03-04T05:06:13.631Z,20.89
2023-03-04T05:07:13.650Z,20.89
2023-03-04T05:08:13.661Z,20.89
2023-03-04T05:09:13.680Z,20.88
2023-03-04T05:10:13.702Z,20.88
2023-03-04T05:11:13.719Z,20.88
2023-03-04T05:12:13.745Z,20.89
2023-03-04T05:13:13.763Z,20.88
2023-03-04T05:14:13.798Z,20.88
2023-03-04T05:15:13.803Z,20.88
2023-03-04T05:16:13.895Z,20.87
2023-03-04T05:17:13.835Z,20.88
2023-03-04T05:18:13.847Z,20.88
2023-03-04T05:19:13.870Z,20.87
2023-03-04T05:20:13.906Z,20.87
2023-03-04T05:21:13.927Z,20.87
2023-03-04T05:22:13.951Z,20.88
2023-03-04T05:23:13.969Z,20.87
2023-03-04T05:24:13.987Z,20.87
2023-03-04T05:25:14.836Z,20.87
2023-03-04T05:26:14.041Z,20.87
2023-03-04T05:27:14.102Z,20.87
2023-03-04T05:28:14.159Z,20.86
2023-03-04T05:29:14.102Z,20.87
2023-03-04T05:30:14.128Z,20.87
2023-03-04T05:31:14.211Z,20.87
2023-03-04T05:32:14.296Z,20.86
2023-03-04T05:33:14.211Z,20.86
2023-03-04T05:34:14.219Z,20.86
2023-03-04T05:35:14.247Z,20.86
2023-03-04T05:36:14.277Z,20.86
2023-03-04T05:37:14.305Z,20.86
2023-03-04T05:38:14.328Z,20.86
2023-03-04T05:39:14.344Z,20.86
2023-03-04T05:40:14.375Z,20.85
2023-03-04T05:41:14.397Z,20.86
2023-03-04T05:42:14.417Z,20.85
2023-03-04T05:43:14.440Z,20.86
2023-03-04T05:44:14.457Z,20.85
2023-03-04T05:45:14.499Z,20.85
2023-03-04T05:46:14.544Z,20.85
2023-03-04T05:47:14.551Z,20.85
2023-03-04T05:48:14.556Z,20.85
2023-03-04T05:49:14.589Z,20.85
2023-03-04T05:50:14.611Z,20.85
2023-03-04T05:51:14.662Z,20.85
2023-03-04T05:52:14.661Z,20.85
2023-03-04T05:53:14.685Z,20.84
2023-03-04T05:54:14.704Z,20.85
2023-03-04T05:55:14.731Z,20.84
2023-03-04T05:56:14.758Z,20.85
2023-03-04T05:57:14.794Z,20.84
2023-03-04T05:58:14.823Z,20.84
2023-03-04T05:59:14.840Z,20.85
2023-03-04T06:00:14.882Z,20.84
2023-03-04T06:01:14.939Z,20.84
2023-03-04T06:02:14.931Z,20.84
2023-03-04T06:03:14.966Z,20.84
2023-03-04T06:04:15.045Z,20.84
2023-03-04T06:05:15.034Z,20.84
2023-03-04T06:06:15.048Z,20.83
2023-03-04T06:07:15.081Z,20.84
2023-03-04T06:08:15.356Z,20.84
2023-03-04T06:09:15.129Z,20.82
2023-03-04T06:10:15.165Z,20.84
2023-03-04T06:11:15.190Z,20.83
2023-03-04T06:12:15.212Z,20.83
2023-03-04T06:13:15.241Z,20.83
2023-03-04T06:14:15.317Z,20.83
2023-03-04T06:15:15.300Z,20.83
2023-03-04T06:16:15.371Z,20.82
2023-03-04T06:17:15.856Z,20.82
2023-03-04T06:18:15.394Z,20.83
2023-03-04T06:19:15.442Z,20.83
2023-03-04T06:20:15.476Z,20.83
2023-03-04T06:21:15.502Z,20.82
2023-03-04T06:22:15.611Z,20.83
2023-03-04T06:23:15.566Z,20.83
2023-03-04T06:24:15.597Z,20.82
2023-03-04T06:25:15.630Z,20.82
2023-03-04T06:26:15.843Z,20.82
2023-03-04T06:27:15.676Z,20.83
2023-03-04T06:28:15.710Z,20.82
2023-03-04T06:29:15.750Z,20.84
2023-03-04T06:30:15.784Z,20.82
2023-03-04T06:31:15.843Z,20.82
2023-03-04T06:32:15.848Z,20.81
2023-03-04T07:38:17.882Z,20.84
2023-03-04T07:40:17.750Z,20.83
2023-03-04T07:41:17.770Z,20.83
2023-03-04T07:42:17.798Z,20.83
2023-03-04T07:43:17.812Z,20.82
2023-03-04T07:44:17.847Z,20.82
2023-03-04T07:45:17.881Z,20.83
2023-03-04T07:46:18.008Z,20.82
2023-03-04T07:47:17.928Z,20.83
2023-03-04T07:48:17.965Z,20.85
2023-03-04T07:49:17.989Z,20.84
2023-03-04T07:50:18.230Z,20.85
2023-03-04T07:51:18.057Z,20.85
2023-03-04T07:52:18.060Z,20.85
2023-03-04T07:53:18.095Z,20.86
2023-03-04T07:54:18.206Z,20.86
2023-03-04T07:55:18.164Z,20.87
2023-03-04T07:56:18.170Z,20.87
2023-03-04T07:57:18.198Z,20.87
2023-03-04T07:58:18.885Z,20.88
2023-03-04T07:59:18.340Z,20.89
2023-03-04T08:00:18.274Z,20.88
2023-03-04T08:01:18.323Z,20.88
2023-03-04T08:02:18.333Z,20.89
2023-03-04T08:03:18.364Z,20.88
2023-03-04T08:04:18.442Z,20.89
2023-03-04T08:05:18.420Z,20.90
2023-03-04T08:06:18.432Z,20.90
2023-03-04T08:07:18.449Z,20.90
2023-03-04T08:08:18.490Z,20.90
2023-03-04T08:09:18.508Z,20.89
2023-03-04T08:10:18.519Z,20.90
2023-03-04T08:11:18.549Z,20.90
2023-03-04T08:12:18.570Z,20.90
2023-03-04T08:13:18.595Z,20.90
2023-03-04T08:14:18.613Z,20.90
2023-03-04T08:15:18.644Z,20.91
2023-03-04T08:16:18.732Z,20.91
2023-03-04T08:17:18.689Z,20.91
2023-03-04T08:18:18.710Z,20.91
2023-03-04T08:19:18.726Z,20.92
2023-03-04T08:20:19.392Z,20.91
2023-03-04T08:21:19.471Z,20.91
2023-03-04T08:22:18.790Z,20.92
2023-03-04T08:23:18.899Z,20.93
2023-03-04T08:24:18.906Z,20.93
2023-03-04T08:25:18.857Z,20.93
2023-03-04T08:26:18.928Z,20.93
2023-03-04T08:27:18.902Z,20.93
2023-03-04T08:28:18.913Z,20.92
2023-03-04T08:29:18.932Z,20.93
2023-03-04T08:30:18.947Z,20.94
2023-03-04T08:31:19.117Z,20.94
2023-03-04T08:32:19.135Z,20.93
2023-03-04T08:33:18.994Z,20.93
2023-03-04T08:34:19.103Z,20.93
2023-03-04T08:35:19.049Z,20.94
2023-03-04T08:36:19.033Z,20.94
2023-03-04T08:37:19.046Z,20.94
2023-03-04T08:38:19.070Z,20.95
2023-03-04T08:39:19.083Z,20.95
2023-03-04T08:40:19.092Z,20.94
2023-03-04T08:41:19.098Z,20.96
2023-03-04T08:42:19.132Z,20.95
2023-03-04T08:43:19.129Z,20.95
2023-03-04T08:44:19.146Z,20.96
2023-03-04T08:45:19.153Z,20.96
2023-03-04T08:46:19.242Z,20.96
2023-03-04T08:47:19.181Z,20.96
2023-03-04T08:48:19.195Z,20.97
2023-03-04T08:49:19.223Z,20.97
2023-03-04T08:50:21.366Z,20.97
2023-03-04T08:51:19.234Z,20.97
2023-03-04T08:52:19.195Z,20.98
2023-03-04T08:53:19.111Z,20.97
2023-03-04T08:54:19.066Z,20.98
2023-03-04T08:55:19.028Z,20.98
2023-03-04T08:56:18.973Z,20.98
2023-03-04T08:57:18.936Z,20.98
2023-03-04T08:58:18.909Z,20.98
2023-03-04T08:59:18.883Z,20.98
2023-03-04T09:00:18.834Z,20.99
2023-03-04T09:01:18.807Z,21.00
2023-03-04T09:02:18.777Z,21.00
2023-03-04T09:03:18.745Z,21.01
2023-03-04T09:04:18.684Z,21.01
2023-03-04T09:05:18.633Z,21.01
2023-03-04T09:06:18.600Z,21.01
2023-03-04T09:07:18.555Z,21.01
2023-03-04T09:08:18.509Z,21.02
2023-03-04T09:09:18.469Z,21.03
2023-03-04T09:10:18.429Z,21.03
2023-03-04T09:11:18.383Z,21.03
2023-03-04T09:12:18.336Z,21.03
2023-03-04T09:13:18.298Z,21.03
2023-03-04T09:14:18.241Z,21.04
2023-03-04T09:15:18.209Z,21.04
2023-03-04T09:16:18.180Z,21.05
2023-03-04T09:17:18.114Z,21.05
2023-03-04T09:18:18.078Z,21.06
2023-03-04T09:19:18.108Z,21.06
2023-03-04T09:20:17.988Z,21.06
2023-03-04T09:21:17.944Z,21.06
2023-03-04T09:22:17.896Z,21.07
2023-03-04T09:23:17.867Z,21.08
2023-03-04T09:24:17.831Z,21.09
2023-03-04T09:25:17.780Z,21.09
2023-03-04T09:26:17.724Z,21.09
2023-03-04T09:29:17.630Z,21.10
2023-03-04T09:30:17.559Z,21.11
2023-03-04T09:31:17.563Z,21.12
2023-03-04T09:32:17.529Z,21.12
2023-03-04T09:33:17.441Z,21.13
2023-03-04T09:34:17.393Z,21.13
2023-03-04T09:35:17.383Z,21.13
2023-03-04T09:36:17.317Z,21.14
2023-03-04T09:37:17.257Z,21.14
2023-03-04T09:38:17.298Z,21.14
2023-03-04T09:39:17.212Z,21.15
2023-03-04T09:40:17.205Z,21.16
2023-03-04T09:41:17.293Z,21.16
2023-03-04T09:42:17.211Z,21.17
2023-03-04T09:43:17.191Z,21.18
2023-03-04T09:44:17.186Z,21.18
2023-03-04T09:45:17.174Z,21.19
2023-03-04T09:46:17.214Z,21.20
2023-03-04T09:47:17.316Z,21.20
2023-03-04T09:48:17.160Z,21.21
2023-03-04T09:49:17.154Z,21.21
2023-03-04T09:50:17.152Z,21.22
2023-03-04T09:51:17.201Z,21.23
2023-03-04T09:52:17.133Z,21.23
2023-03-04T09:53:17.118Z,21.24
2023-03-04T09:54:17.103Z,21.24
2023-03-04T09:55:17.090Z,21.27
2023-03-04T09:56:17.101Z,21.27
2023-03-04T09:57:17.064Z,21.28
2023-03-04T09:58:17.045Z,21.29
2023-03-04T09:59:17.038Z,21.30
2023-03-04T10:00:17.175Z,21.30
2023-03-04T10:01:17.006Z,21.32
2023-03-04T10:02:17.927Z,21.33
2023-03-04T10:03:16.987Z,21.34
2023-03-04T10:04:16.953Z,21.35
2023-03-04T10:05:16.933Z,21.36
2023-03-04T10:06:16.919Z,21.36
2023-03-04T10:07:16.900Z,21.38
2023-03-04T10:08:16.870Z,21.38
2023-03-04T10:09:16.879Z,21.39
2023-03-04T10:10:16.968Z,21.40
2023-03-04T10:11:17.434Z,21.42
2023-03-04T10:12:16.803Z,21.41
2023-03-04T10:13:16.814Z,21.43
2023-03-04T10:14:17.431Z,21.44
2023-03-04T10:15:16.820Z,21.45
2023-03-04T10:16:16.723Z,21.46
2023-03-04T10:17:16.678Z,21.47
2023-03-04T10:18:17.883Z,21.48
2023-03-04T10:19:16.662Z,21.49
2023-03-04T10:20:16.582Z,21.50
2023-03-04T10:21:16.529Z,21.51
2023-03-04T10:22:16.462Z,21.52
2023-03-04T10:23:16.418Z,21.54
2023-03-04T10:24:16.382Z,21.55
2023-03-04T10:25:16.322Z,21.56
2023-03-04T10:26:16.276Z,21.57
2023-03-04T10:27:16.854Z,21.58
2023-03-04T10:28:16.187Z,21.60
2023-03-04T10:29:16.136Z,21.61
2023-03-04T10:30:16.100Z,21.63
2023-03-04T10:31:16.058Z,21.64
2023-03-04T13:22:10.161Z,24.65
2023-03-04T13:23:10.202Z,24.67
2023-03-04T13:24:10.143Z,24.68
2023-03-04T13:25:10.500Z,24.70
2023-03-04T13:26:11.048Z,24.72
2023-03-04T13:27:10.115Z,24.73
2023-03-04T13:28:10.103Z,24.74
2023-03-04T13:29:10.160Z,24.76
2023-03-04T13:30:10.069Z,24.77
2023-03-04T13:31:10.091Z,24.79
2023-03-04T13:32:10.079Z,24.80
2023-03-04T13:33:10.025Z,24.82
2023-03-04T14:07:08.637Z,25.96
2023-03-04T14:13:08.388Z,26.39
2023-03-04T14:14:08.356Z,26.42
2023-03-04T14:15:08.404Z,26.43
2023-03-04T14:16:08.362Z,26.40
2023-03-04T14:17:08.282Z,26.38
2023-03-04T14:18:08.269Z,26.38
2023-03-04T14:19:08.243Z,26.38
2023-03-04T14:20:08.211Z,26.39
2023-03-04T14:21:08.176Z,26.38
2023-03-04T14:22:08.140Z,26.35
2023-03-04T14:23:08.101Z,26.29
2023-03-04T14:24:08.162Z,26.20
2023-03-04T14:25:08.087Z,26.10
2023-03-04T14:26:08.008Z,26.01
2023-03-04T14:27:07.955Z,25.91
2023-03-04T14:28:07.898Z,25.85
2023-03-04T14:29:07.800Z,25.79
2023-03-04T14:30:07.723Z,25.76
2023-03-04T16:58:02.016Z,22.71
2023-03-04T16:59:01.966Z,22.70
2023-03-04T17:00:01.950Z,22.70
2023-03-04T17:01:01.900Z,22.68
2023-03-04T17:02:01.902Z,22.67
2023-03-04T17:03:01.875Z,22.66
2023-03-04T17:04:01.767Z,22.65
2023-03-04T17:05:01.743Z,22.65
2023-03-04T17:06:01.703Z,22.63
2023-03-04T17:07:01.671Z,22.63
2023-03-04T17:08:01.626Z,22.62
2023-03-04T17:09:01.592Z,22.61
2023-03-04T17:10:01.616Z,22.61
2023-03-04T17:11:01.535Z,22.59
2023-03-04T17:12:01.516Z,22.59
2023-03-04T17:13:01.468Z,22.58
2023-03-04T17:14:01.436Z,22.58
2023-03-04T17:15:01.412Z,22.56
2023-03-04T17:16:01.386Z,22.55
2023-03-04T17:17:01.337Z,22.55
2023-03-04T17:18:01.313Z,22.54
2023-03-04T17:19:01.345Z,22.53
2023-03-04T17:20:01.260Z,22.52
2023-03-04T17:21:01.261Z,22.51
2023-03-04T17:22:01.204Z,22.50
2023-03-04T17:23:01.177Z,22.50
2023-03-04T17:24:01.142Z,22.49
2023-03-04T17:25:01.150Z,22.48
2023-03-04T17:26:01.099Z,22.47
2023-03-04T17:27:01.069Z,22.47
2023-03-04T17:28:01.051Z,22.46
2023-03-04T17:29:01.027Z,22.45
2023-03-04T17:30:01.106Z,22.44
2023-03-04T17:31:00.983Z,22.42
2023-03-04T17:32:01.017Z,22.42
2023-03-04T17:33:00.952Z,22.41
2023-03-04T17:34:00.925Z,22.41
2023-03-04T17:35:00.905Z,22.40
2023-03-04T17:36:00.936Z,22.38
2023-03-04T17:37:00.881Z,22.38
2023-03-04T17:38:00.867Z,22.37
2023-03-04T17:39:00.856Z,22.37
2023-03-04T17:40:00.846Z,22.36
2023-03-04T17:41:00.833Z,22.35
2023-03-04T17:42:00.824Z,22.35
2023-03-04T17:43:00.817Z,22.33
2023-03-04T17:44:00.812Z,22.32
2023-03-04T17:45:01.100Z,22.33
2023-03-04T17:46:00.796Z,22.32
2023-03-04T17:47:00.789Z,22.31
2023-03-04T17:48:00.784Z,22.30
2023-03-04T17:49:00.779Z,22.30
2023-03-04T17:50:00.793Z,22.30
2023-03-04T17:51:00.764Z,22.28
2023-03-04T17:52:00.773Z,22.28
2023-03-04T17:53:00.776Z,22.28
2023-03-04T17:54:00.768Z,22.27
2023-03-04T17:55:00.757Z,22.26
2023-03-04T17:56:00.784Z,22.26
2023-03-04T17:57:00.761Z,22.25
2023-03-04T17:58:00.772Z,22.25
2023-03-04T17:59:00.772Z,22.24
2023-03-04T18:00:00.832Z,22.23
2023-03-04T18:01:00.934Z,22.24
2023-03-04T18:02:00.924Z,22.22
2023-03-04T18:03:00.783Z,22.22
2023-03-04T18:04:00.787Z,22.21
2023-03-04T18:05:00.788Z,22.20
2023-03-04T18:26:00.957Z,22.09
2023-03-04T18:27:00.949Z,22.09
2023-03-04T18:28:00.980Z,22.08
2023-03-04T18:29:00.988Z,22.08
2023-03-04T18:30:01.151Z,22.07
2023-03-04T18:31:01.006Z,22.06
2023-03-04T18:32:01.165Z,22.07
2023-03-04T18:33:01.062Z,22.05
2023-03-04T18:34:01.048Z,22.06
2023-03-04T18:35:01.065Z,22.05
2023-03-04T18:36:01.074Z,22.04
2023-03-04T18:37:01.115Z,22.04
2023-03-04T18:38:01.112Z,22.04
2023-03-04T18:39:01.114Z,22.03
2023-03-04T18:40:01.205Z,22.03
2023-03-04T18:41:01.154Z,22.02
2023-03-04T18:42:01.168Z,22.02
2023-03-04T18:43:01.183Z,22.01
2023-03-04T18:44:01.221Z,22.01
2023-03-04T18:45:01.211Z,22.00
2023-03-04T18:46:01.250Z,22.01
2023-03-04T18:47:01.246Z,22.00
2023-03-04T18:48:01.292Z,21.99
2023-03-04T18:49:01.285Z,21.98
2023-03-04T18:50:01.315Z,21.98
2023-03-04T18:51:01.329Z,21.97
2023-03-04T18:52:01.347Z,21.98
2023-03-04T18:53:01.399Z,21.97
2023-03-04T18:54:01.414Z,21.97
2023-03-04T18:55:01.421Z,21.96
2023-03-04T18:56:01.458Z,21.95
2023-03-04T18:57:01.472Z,21.95
2023-03-04T18:58:01.503Z,21.95
2023-03-04T18:59:01.526Z,21.94
2023-03-04T19:00:01.563Z,21.94
2023-03-04T19:01:01.608Z,21.94
2023-03-04T19:02:01.594Z,21.93
2023-03-04T19:03:01.613Z,21.93
2023-03-04T19:04:01.679Z,21.92
2023-03-04T19:05:01.665Z,21.92
2023-03-04T19:06:01.686Z,21.91
2023-03-04T19:07:01.688Z,21.92
2023-03-04T19:08:01.801Z,21.91
2023-03-04T19:09:01.756Z,21.91
2023-03-04T19:10:01.764Z,21.90
2023-03-04T19:11:01.782Z,21.90
2023-03-04T19:12:01.791Z,21.90
2023-03-04T19:13:01.806Z,21.89
2023-03-04T19:14:01.832Z,21.89
2023-03-04T19:15:01.858Z,21.88
2023-03-04T19:16:02.629Z,21.88
2023-03-04T19:17:01.900Z,21.87
2023-03-04T19:18:01.927Z,21.87
2023-03-04T19:19:01.946Z,21.87
2023-03-04T19:20:01.942Z,21.86
2023-03-04T19:21:03.651Z,21.86
2023-03-04T19:22:01.898Z,21.86
2023-03-04T19:23:01.847Z,21.86
2023-03-04T19:24:01.794Z,21.85
2023-03-04T19:25:01.780Z,21.84
2023-03-04T19:26:01.709Z,21.85
2023-03-04T19:27:01.665Z,21.84
2023-03-04T19:28:01.617Z,21.84
2023-03-04T19:29:01.632Z,21.84
2023-03-04T19:30:01.529Z,21.83
2023-03-04T19:31:01.536Z,21.83
2023-03-04T19:32:01.487Z,21.82
2023-03-04T19:33:01.405Z,21.82
2023-03-04T19:34:01.346Z,21.82
2023-03-04T19:35:01.307Z,21.81
2023-03-04T19:36:01.332Z,21.80
2023-03-04T19:37:01.215Z,21.81
2023-03-04T19:38:01.180Z,21.82
2023-03-04T19:54:00.456Z,21.75
2023-03-04T19:55:00.414Z,21.75
2023-03-04T19:56:00.369Z,21.74
2023-03-04T19:57:00.345Z,21.74
2023-03-04T19:58:00.280Z,21.73
2023-03-04T19:59:00.230Z,21.74
2023-03-04T20:00:00.201Z,21.73
2023-03-04T20:01:00.144Z,21.73
2023-03-04T20:02:00.099Z,21.72
2023-03-04T20:03:00.118Z,21.73
2023-03-04T20:04:00.059Z,21.72
2023-03-04T20:04:59.982Z,21.71
2023-03-04T20:05:59.940Z,21.71
2023-03-04T20:06:59.897Z,21.72
2023-03-04T20:07:59.841Z,21.71
2023-03-04T20:08:59.817Z,21.70
2023-03-04T20:09:59.751Z,21.70
2023-03-04T20:10:59.725Z,21.71
2023-03-04T20:11:59.714Z,21.70
2023-03-04T20:12:59.620Z,21.70
2023-03-04T20:13:59.643Z,21.69
2023-03-04T20:14:59.545Z,21.70
2023-03-04T20:15:59.525Z,21.69
2023-03-04T20:16:59.455Z,21.69
2023-03-04T20:17:59.414Z,21.68
2023-03-04T20:18:59.660Z,21.68
2023-03-04T20:19:59.327Z,21.68
2023-03-04T20:20:59.283Z,21.68
2023-03-04T20:21:59.289Z,21.68
2023-03-04T20:23:00.146Z,21.67
2023-03-04T20:23:59.291Z,21.67
2023-03-04T20:24:59.289Z,21.67
2023-03-04T20:25:59.260Z,21.66
2023-03-04T20:26:59.268Z,21.66
2023-03-04T20:27:59.238Z,21.66
2023-03-04T20:28:59.187Z,21.66
2023-03-04T20:29:59.563Z,21.66
2023-03-04T20:30:59.183Z,21.66
2023-03-04T20:31:59.140Z,21.65
2023-03-04T20:32:59.073Z,21.65
2023-03-04T20:33:59.037Z,21.65
2023-03-04T20:34:59.004Z,21.65
2023-03-04T20:35:58.974Z,21.64
2023-03-04T20:37:00.149Z,21.64
2023-03-04T20:37:58.939Z,21.63
2023-03-04T20:39:03.344Z,21.64
2023-03-04T20:39:59.881Z,21.63
2023-03-04T20:40:58.842Z,21.63
2023-03-04T20:41:58.832Z,21.63
2023-03-04T20:42:58.834Z,21.62
2023-03-04T20:43:58.731Z,21.62
2023-03-04T20:44:58.679Z,21.62
2023-03-04T20:45:58.647Z,21.62
2023-03-04T20:46:58.610Z,21.62
2023-03-04T20:47:58.536Z,21.61
2023-03-04T20:48:58.505Z,21.61
2023-03-04T20:49:58.490Z,21.60
2023-03-04T20:50:58.425Z,21.60
2023-03-04T20:51:58.391Z,21.60
2023-03-04T20:52:58.355Z,21.61
2023-03-04T20:53:58.308Z,21.60
2023-03-04T20:54:58.256Z,21.60
2023-03-04T20:55:58.221Z,21.59
2023-03-04T20:56:58.178Z,21.59
2023-03-04T20:57:58.134Z,21.58
2023-03-04T20:58:58.099Z,21.59
2023-03-04T20:59:58.052Z,21.58
2023-03-04T21:00:58.008Z,21.58
2023-03-04T21:01:58.125Z,21.58
2023-03-04T21:02:57.937Z,21.58
2023-03-04T21:03:57.919Z,21.56
2023-03-04T21:04:57.853Z,21.57
2023-03-04T21:05:57.829Z,21.57
2023-03-04T21:06:57.797Z,21.56
2023-03-04T21:07:57.742Z,21.56
2023-03-04T21:09:58.169Z,21.56
2023-03-04T21:20:58.164Z,21.54
